createdAt,value
2018-03-17T00:00:08.187Z,99100.30
2018-03-17T00:02:37.314Z,99118.28
2018-03-17T00:05:06.861Z,99116.68
2018-03-17T00:10:00.460Z,99127.64
2018-03-17T00:12:29.460Z,99122.34
2018-03-17T00:14:58.858Z,99123.31
2018-03-17T00:17:28.131Z,99124.84
2018-03-17T00:19:57.330Z,99120.73
2018-03-17T00:22:26.828Z,99126.38
2018-03-17T00:27:19.053Z,99118.96
2018-03-17T00:29:48.244Z,99117.91
2018-03-17T00:32:17.499Z,99125.75
2018-03-17T00:34:46.897Z,99128.39
2018-03-17T00:37:17.150Z,99129.70
2018-03-17T00:42:04.795Z,99145.67
2018-03-17T00:44:34.206Z,99146.73
2018-03-17T00:47:03.529Z,99142.97
2018-03-17T00:49:32.681Z,99150.70
2018-03-17T00:52:01.893Z,99142.35
2018-03-17T00:54:31.440Z,99145.00
2018-03-17T00:57:00.482Z,99157.27
2018-03-17T00:59:29.824Z,99165.92
2018-03-17T01:01:58.952Z,99162.59
2018-03-17T01:04:28.640Z,99171.75
2018-03-17T01:06:57.829Z,99171.84
2018-03-17T01:09:27.357Z,99179.98
2018-03-17T01:11:56.935Z,99182.02
2018-03-17T01:14:26.124Z,99188.42
2018-03-17T01:16:55.578Z,99186.96
2018-03-17T01:19:24.829Z,99196.45
2018-03-17T01:21:54.187Z,99192.84
2018-03-17T01:24:23.148Z,99192.16
2018-03-17T01:26:52.521Z,99197.27
2018-03-17T01:29:21.633Z,99214.17
2018-03-17T01:31:51.061Z,99219.98
2018-03-17T01:34:20.489Z,99227.60
2018-03-17T01:36:49.662Z,99226.47
2018-03-17T01:39:18.939Z,99231.57
2018-03-17T01:41:48.294Z,99239.30
2018-03-17T01:44:17.572Z,99234.42
2018-03-17T01:46:46.831Z,99236.38
2018-03-17T01:49:16.363Z,99243.58
2018-03-17T01:54:35.051Z,99250.33
2018-03-17T01:57:04.265Z,99248.19
2018-03-17T01:59:33.559Z,99258.79
2018-03-17T02:02:02.735Z,99262.28
2018-03-17T02:04:31.717Z,99263.73
2018-03-17T02:07:00.949Z,99272.39
2018-03-17T02:09:29.941Z,99279.98
2018-03-17T02:11:58.837Z,99283.48
2018-03-17T02:14:28.136Z,99290.53
2018-03-17T02:16:57.480Z,99294.64
2018-03-17T02:19:26.883Z,99292.48
2018-03-17T02:21:56.100Z,99297.00
2018-03-17T02:24:25.430Z,99306.35
2018-03-17T02:26:54.887Z,99306.29
2018-03-17T02:29:24.065Z,99313.17
2018-03-17T02:31:53.101Z,99311.95
2018-03-17T02:34:22.335Z,99321.06
2018-03-17T02:36:51.673Z,99326.66
2018-03-17T02:39:21.172Z,99326.23
2018-03-17T02:41:50.646Z,99331.41
2018-03-17T02:44:19.895Z,99335.88
2018-03-17T02:46:48.935Z,99338.16
2018-03-17T02:49:18.496Z,99340.88
2018-03-17T02:51:47.429Z,99342.69
2018-03-17T02:54:16.545Z,99344.63
2018-03-17T02:56:46.057Z,99343.95
2018-03-17T02:59:15.555Z,99348.64
2018-03-17T03:01:44.898Z,99355.75
2018-03-17T03:04:13.883Z,99350.88
2018-03-17T03:06:43.507Z,99367.10
2018-03-17T03:09:13.092Z,99374.38
2018-03-17T03:11:42.053Z,99377.28
2018-03-17T03:14:11.216Z,99374.08
2018-03-17T03:16:40.588Z,99375.11
2018-03-17T03:19:10.374Z,99383.84
2018-03-17T03:21:39.812Z,99381.81
2018-03-17T03:24:09.268Z,99388.86
2018-03-17T03:26:38.466Z,99383.62
2018-03-17T03:29:08.043Z,99389.63
2018-03-17T03:31:37.494Z,99395.42
2018-03-17T03:34:06.587Z,99396.81
2018-03-17T03:36:35.939Z,99395.91
2018-03-17T03:39:05.742Z,99401.27
2018-03-17T03:41:35.106Z,99397.39
2018-03-17T03:44:04.446Z,99405.47
2018-03-17T03:46:33.684Z,99409.38
2018-03-17T03:49:03.082Z,99416.01
2018-03-17T03:51:32.252Z,99416.42
2018-03-17T03:54:01.268Z,99418.17
2018-03-17T03:56:30.284Z,99421.37
2018-03-17T03:58:59.671Z,99432.46
2018-03-17T04:01:28.904Z,99434.20
2018-03-17T04:03:58.019Z,99430.48
2018-03-17T04:06:27.479Z,99431.09
2018-03-17T04:08:56.991Z,99436.27
2018-03-17T04:11:31.461Z,99435.30
2018-03-17T04:14:00.243Z,99433.00
2018-03-17T04:16:29.172Z,99432.03
2018-03-17T04:18:58.607Z,99434.08
2018-03-17T04:21:28.020Z,99442.03
2018-03-17T04:23:57.294Z,99436.15
2018-03-17T04:26:26.869Z,99442.84
2018-03-17T04:28:56.203Z,99442.10
2018-03-17T04:31:25.503Z,99446.20
2018-03-17T04:33:54.631Z,99439.58
2018-03-17T04:36:23.676Z,99444.04
2018-03-17T04:38:53.980Z,99433.38
2018-03-17T04:41:23.470Z,99438.36
2018-03-17T04:43:52.709Z,99435.22
2018-03-17T04:46:22.111Z,99435.13
2018-03-17T04:48:51.327Z,99433.12
2018-03-17T04:51:20.593Z,99436.73
2018-03-17T04:53:50.102Z,99436.87
2018-03-17T04:56:19.505Z,99437.29
2018-03-17T04:58:48.712Z,99441.20
2018-03-17T05:01:18.026Z,99433.96
2018-03-17T05:03:47.435Z,99432.83
2018-03-17T05:06:16.859Z,99442.39
2018-03-17T05:08:46.349Z,99447.34
2018-03-17T05:11:15.894Z,99446.81
2018-03-17T05:13:45.278Z,99444.94
2018-03-17T05:16:14.371Z,99441.03
2018-03-17T05:18:43.644Z,99440.97
2018-03-17T05:21:13.054Z,99440.28
2018-03-17T05:23:42.365Z,99434.41
2018-03-17T05:26:11.694Z,99433.72
2018-03-17T05:28:41.032Z,99432.89
2018-03-17T05:31:10.419Z,99427.52
2018-03-17T05:33:39.950Z,99434.45
2018-03-17T05:36:09.305Z,99431.38
2018-03-17T05:38:38.778Z,99420.00
2018-03-17T05:41:07.894Z,99416.73
2018-03-17T05:43:37.561Z,99418.31
2018-03-17T05:46:06.988Z,99416.08
2018-03-17T05:48:36.336Z,99418.41
2018-03-17T05:51:05.651Z,99416.38
2018-03-17T05:53:34.993Z,99411.62
2018-03-17T05:56:04.454Z,99409.52
2018-03-17T05:58:33.790Z,99416.27
2018-03-17T06:01:02.899Z,99416.14
2018-03-17T06:03:32.462Z,99409.58
2018-03-17T06:06:01.558Z,99409.09
2018-03-17T06:08:30.768Z,99408.38
2018-03-17T06:11:00.086Z,99400.78
2018-03-17T06:13:29.509Z,99392.77
2018-03-17T06:15:58.788Z,99395.29
2018-03-17T06:18:28.052Z,99392.38
2018-03-17T06:20:57.158Z,99383.30
2018-03-17T06:23:26.545Z,99384.14
2018-03-17T06:25:55.977Z,99381.36
2018-03-17T06:28:25.197Z,99381.66
2018-03-17T06:30:54.581Z,99380.94
2018-03-17T06:33:23.752Z,99378.30
2018-03-17T06:35:52.867Z,99379.84
2018-03-17T06:38:22.375Z,99372.86
2018-03-17T06:40:51.717Z,99369.72
2018-03-17T06:43:21.237Z,99377.03
2018-03-17T06:45:50.804Z,99372.80
2018-03-17T06:48:19.911Z,99369.66
2018-03-17T06:50:49.691Z,99364.84
2018-03-17T06:53:18.972Z,99355.98
2018-03-17T06:55:48.192Z,99358.21
2018-03-17T06:58:17.319Z,99358.56
2018-03-17T07:00:46.732Z,99349.61
2018-03-17T07:03:15.867Z,99355.20
2018-03-17T07:05:45.314Z,99340.00
2018-03-17T07:08:14.629Z,99329.05
2018-03-17T07:10:43.889Z,99338.22
2018-03-17T07:13:13.247Z,99335.24
2018-03-17T07:15:42.624Z,99320.86
2018-03-17T07:18:11.997Z,99319.45
2018-03-17T07:20:41.498Z,99312.22
2018-03-17T07:23:10.513Z,99315.77
2018-03-17T07:25:39.912Z,99308.86
2018-03-17T07:28:09.204Z,99303.00
2018-03-17T07:30:38.319Z,99297.28
2018-03-17T07:33:07.793Z,99296.02
2018-03-17T07:35:37.363Z,99292.59
2018-03-17T07:38:06.492Z,99285.19
2018-03-17T07:40:35.531Z,99284.63
2018-03-17T07:43:05.023Z,99279.75
2018-03-17T07:45:34.471Z,99280.59
2018-03-17T07:48:03.848Z,99272.70
2018-03-17T07:50:33.146Z,99270.89
2018-03-17T07:53:02.450Z,99266.78
2018-03-17T07:55:31.441Z,99256.09
2018-03-17T07:58:00.607Z,99255.90
2018-03-17T08:00:30.104Z,99246.61
2018-03-17T08:02:59.400Z,99245.05
2018-03-17T08:05:28.721Z,99233.05
2018-03-17T08:07:58.440Z,99236.89
2018-03-17T08:10:27.769Z,99231.66
2018-03-17T08:12:57.070Z,99228.52
2018-03-17T08:15:26.490Z,99230.48
2018-03-17T08:17:55.724Z,99232.36
2018-03-17T08:20:25.597Z,99222.73
2018-03-17T08:22:54.664Z,99215.81
2018-03-17T08:25:24.100Z,99212.89
2018-03-17T08:27:53.691Z,99217.05
2018-03-17T08:30:23.107Z,99201.24
2018-03-17T08:32:52.621Z,99200.89
2018-03-17T08:35:21.911Z,99197.16
2018-03-17T08:37:51.589Z,99184.67
2018-03-17T08:40:20.740Z,99190.19
2018-03-17T08:42:50.482Z,99186.33
2018-03-17T08:45:19.838Z,99191.64
2018-03-17T08:47:48.805Z,99185.55
2018-03-17T08:50:18.431Z,99184.08
2018-03-17T08:52:47.658Z,99183.53
2018-03-17T08:55:18.079Z,99168.35
2018-03-17T08:57:48.560Z,99170.13
2018-03-17T09:00:17.722Z,99173.75
2018-03-17T09:02:47.088Z,99167.09
2018-03-17T09:05:16.701Z,99156.13
2018-03-17T09:07:45.903Z,99153.13
2018-03-17T09:10:15.876Z,99160.53
2018-03-17T09:12:44.945Z,99152.56
2018-03-17T09:15:14.528Z,99152.98
2018-03-17T09:17:43.904Z,99146.28
2018-03-17T09:20:13.741Z,99145.31
2018-03-17T09:22:43.079Z,99134.48
2018-03-17T09:25:12.701Z,99132.81
2018-03-17T09:27:42.213Z,99131.34
2018-03-17T09:30:12.339Z,99130.06
2018-03-17T09:32:41.765Z,99126.92
2018-03-17T09:35:11.591Z,99121.40
2018-03-17T09:37:41.036Z,99118.39
2018-03-17T09:40:10.606Z,99119.27
2018-03-17T09:42:39.976Z,99110.27
2018-03-17T09:45:09.787Z,99108.38
2018-03-17T09:47:38.970Z,99112.70
2018-03-17T09:50:08.193Z,99108.52
2018-03-17T09:52:37.608Z,99109.03
2018-03-17T09:55:07.077Z,99103.52
2018-03-17T09:57:36.566Z,99106.59
2018-03-17T10:00:05.904Z,99107.22
2018-03-17T10:02:35.973Z,99094.92
2018-03-17T10:05:05.517Z,99098.48
2018-03-17T10:07:34.914Z,99099.67
2018-03-17T10:10:04.107Z,99090.17
2018-03-17T10:12:33.817Z,99085.53
2018-03-17T10:15:03.114Z,99090.00
2018-03-17T10:17:32.717Z,99081.27
2018-03-17T10:20:01.898Z,99085.97
2018-03-17T10:22:31.338Z,99085.41
2018-03-17T10:25:00.715Z,99085.19
2018-03-17T10:27:30.166Z,99077.38
2018-03-17T10:29:59.869Z,99073.84
2018-03-17T10:32:28.966Z,99075.39
2018-03-17T10:34:58.200Z,99076.72
2018-03-17T10:37:27.615Z,99085.04
2018-03-17T10:39:57.035Z,99082.45
2018-03-17T10:42:26.435Z,99081.55
2018-03-17T10:44:55.722Z,99081.89
2018-03-17T10:47:25.000Z,99079.93
2018-03-17T10:49:54.292Z,99077.98
2018-03-17T10:52:23.650Z,99080.29
2018-03-17T10:54:53.193Z,99071.76
2018-03-17T10:57:22.719Z,99076.30
2018-03-17T10:59:52.086Z,99076.02
2018-03-17T11:02:22.279Z,99079.44
2018-03-17T11:04:51.553Z,99085.52
2018-03-17T11:07:20.862Z,99079.67
2018-03-17T11:09:50.251Z,99077.46
2018-03-17T11:12:19.312Z,99085.52
2018-03-17T11:14:48.781Z,99093.73
2018-03-17T11:17:18.275Z,99093.83
2018-03-17T11:19:47.591Z,99095.23
2018-03-17T11:22:17.168Z,99095.58
2018-03-17T11:24:46.343Z,99104.34
2018-03-17T11:27:15.771Z,99095.39
2018-03-17T11:29:44.776Z,99096.72
2018-03-17T11:32:14.382Z,99105.00
2018-03-17T11:34:52.819Z,99104.27
2018-03-17T11:37:22.465Z,99107.91
2018-03-17T11:39:51.838Z,99099.87
2018-03-17T11:42:21.116Z,99101.55
2018-03-17T11:44:50.563Z,99101.21
2018-03-17T11:47:20.108Z,99096.02
2018-03-17T11:49:49.755Z,99097.28
2018-03-17T11:52:19.330Z,99103.11
2018-03-17T11:54:48.949Z,99101.86
2018-03-17T11:57:18.216Z,99107.86
2018-03-17T11:59:47.675Z,99107.79
2018-03-17T12:02:17.217Z,99101.70
2018-03-17T12:04:46.687Z,99108.23
2018-03-17T12:07:16.168Z,99102.41
2018-03-17T12:09:45.684Z,99105.00
2018-03-17T12:12:14.986Z,99111.53
2018-03-17T12:14:44.750Z,99109.00
2018-03-17T12:17:14.095Z,99112.64
2018-03-17T12:19:43.326Z,99115.86
2018-03-17T12:22:12.472Z,99110.20
2018-03-17T12:24:41.870Z,99110.03
2018-03-17T12:27:11.482Z,99113.11
2018-03-17T12:29:40.857Z,99119.41
2018-03-17T12:32:10.092Z,99120.32
2018-03-17T12:34:39.447Z,99126.62
2018-03-17T12:37:08.687Z,99123.05
2018-03-17T12:39:37.877Z,99122.84
2018-03-17T12:42:07.381Z,99126.94
2018-03-17T12:44:36.773Z,99133.23
2018-03-17T12:47:06.170Z,99139.38
2018-03-17T12:49:35.571Z,99137.88
2018-03-17T12:52:04.863Z,99147.67
2018-03-17T12:54:34.315Z,99156.91
2018-03-17T12:57:03.600Z,99154.59
2018-03-17T12:59:32.886Z,99153.75
2018-03-17T13:02:02.383Z,99160.33
2018-03-17T13:04:31.599Z,99159.00
2018-03-17T13:07:00.723Z,99164.31
2018-03-17T13:09:30.150Z,99157.32
2018-03-17T13:11:59.092Z,99164.45
2018-03-17T13:14:28.333Z,99168.55
2018-03-17T13:16:57.399Z,99166.38
2018-03-17T13:19:32.508Z,99169.11
2018-03-17T13:22:01.736Z,99176.24
2018-03-17T13:24:31.004Z,99182.88
2018-03-17T13:27:12.122Z,99187.36
2018-03-17T13:29:41.734Z,99195.82
2018-03-17T13:32:22.252Z,99196.17
2018-03-17T13:34:51.872Z,99195.33
2018-03-17T13:37:43.074Z,99197.56
2018-03-17T13:40:23.873Z,99214.77
2018-03-17T13:42:53.479Z,99210.95
2018-03-17T13:45:22.884Z,99214.38
2018-03-17T13:47:52.381Z,99219.13
2018-03-17T13:50:21.910Z,99221.38
2018-03-17T13:52:51.553Z,99229.20
2018-03-17T13:55:20.727Z,99230.46
2018-03-17T13:57:50.028Z,99229.55
2018-03-17T14:00:19.539Z,99233.05
2018-03-17T14:02:48.858Z,99236.20
2018-03-17T14:05:18.381Z,99238.92
2018-03-17T14:07:48.159Z,99241.16
2018-03-17T14:10:17.579Z,99242.63
2018-03-17T14:12:46.832Z,99242.63
2018-03-17T14:15:16.134Z,99246.27
2018-03-17T14:17:45.406Z,99249.34
2018-03-17T14:20:14.563Z,99250.19
2018-03-17T14:22:43.820Z,99251.23
2018-03-17T14:25:13.463Z,99251.16
2018-03-17T14:27:42.632Z,99254.66
2018-03-17T14:30:12.217Z,99253.19
2018-03-17T14:32:42.048Z,99257.59
2018-03-17T14:35:11.256Z,99262.84
2018-03-17T14:37:40.804Z,99260.95
2018-03-17T14:40:10.102Z,99263.95
2018-03-17T14:42:39.367Z,99269.66
2018-03-17T14:45:08.661Z,99271.76
2018-03-17T14:47:37.993Z,99269.52
2018-03-17T14:50:07.348Z,99271.27
2018-03-17T14:52:36.661Z,99274.77
2018-03-17T14:55:05.960Z,99272.11
2018-03-17T14:57:35.462Z,99277.42
2018-03-17T15:00:05.949Z,99280.29
2018-03-17T15:02:35.306Z,99282.56
2018-03-17T15:05:04.718Z,99284.80
2018-03-17T15:07:34.103Z,99285.11
2018-03-17T15:10:03.713Z,99295.43
2018-03-17T15:12:32.693Z,99296.83
2018-03-17T15:15:02.232Z,99295.56
2018-03-17T15:17:31.926Z,99296.77
2018-03-17T15:20:01.330Z,99302.42
2018-03-17T15:22:30.628Z,99304.24
2018-03-17T15:24:59.996Z,99307.28
2018-03-17T15:27:29.087Z,99315.47
2018-03-17T15:29:58.376Z,99311.41
2018-03-17T15:32:27.603Z,99317.14
2018-03-17T15:34:56.942Z,99325.61
2018-03-17T15:37:26.281Z,99322.91
2018-03-17T15:39:55.661Z,99323.33
2018-03-17T15:42:24.640Z,99316.17
2018-03-17T15:44:54.010Z,99315.26
2018-03-17T15:47:23.335Z,99316.69
2018-03-17T15:49:52.818Z,99314.10
2018-03-17T15:52:22.138Z,99316.90
2018-03-17T15:54:51.597Z,99327.32
2018-03-17T15:57:20.705Z,99325.57
2018-03-17T15:59:50.062Z,99321.38
2018-03-17T16:02:20.006Z,99318.58
2018-03-17T16:04:49.439Z,99321.03
2018-03-17T16:07:18.993Z,99321.30
2018-03-17T16:09:48.380Z,99328.23
2018-03-17T16:12:17.250Z,99318.79
2018-03-17T16:14:46.184Z,99321.09
2018-03-17T16:17:15.526Z,99310.15
2018-03-17T16:19:45.171Z,99307.77
2018-03-17T16:22:14.294Z,99307.98
2018-03-17T16:24:43.987Z,99310.71
2018-03-17T16:27:13.372Z,99309.38
2018-03-17T16:29:42.513Z,99312.53
2018-03-17T16:32:11.507Z,99309.59
2018-03-17T16:34:40.768Z,99311.12
2018-03-17T16:37:09.963Z,99316.38
2018-03-17T16:39:39.274Z,99309.66
2018-03-17T16:42:08.611Z,99307.98
2018-03-17T16:44:37.798Z,99311.12
2018-03-17T16:47:07.261Z,99310.36
2018-03-17T16:49:36.296Z,99312.04
2018-03-17T16:52:05.858Z,99314.21
2018-03-17T16:54:35.424Z,99313.38
2018-03-17T16:57:05.178Z,99312.46
2018-03-17T16:59:35.075Z,99308.55
2018-03-17T17:02:04.372Z,99311.80
2018-03-17T17:04:33.704Z,99312.46
2018-03-17T17:07:03.092Z,99314.63
2018-03-17T17:09:33.730Z,99316.23
2018-03-17T17:12:03.255Z,99313.86
2018-03-17T17:14:33.497Z,99317.00
2018-03-17T17:17:03.472Z,99313.09
2018-03-17T17:19:34.730Z,99313.65
2018-03-17T17:22:04.528Z,99311.90
2018-03-17T17:24:34.640Z,99309.31
2018-03-17T17:27:04.281Z,99305.33
2018-03-17T17:29:33.810Z,99306.23
2018-03-17T17:32:06.572Z,99298.33
2018-03-17T17:34:36.854Z,99299.31
2018-03-17T17:37:06.807Z,99298.65
2018-03-17T17:39:36.316Z,99293.27
2018-03-17T17:42:06.936Z,99292.84
2018-03-17T17:44:37.041Z,99289.77
2018-03-17T17:47:06.473Z,99297.95
2018-03-17T17:49:36.535Z,99299.28
2018-03-17T17:52:05.802Z,99297.11
2018-03-17T17:54:37.417Z,99309.63
2018-03-17T17:57:08.127Z,99303.33
2018-03-17T17:59:37.732Z,99301.94
2018-03-17T18:02:08.399Z,99296.20
2018-03-17T18:04:39.028Z,99300.19
2018-03-17T18:07:08.672Z,99290.75
2018-03-17T18:09:38.454Z,99293.97
2018-03-17T18:12:07.806Z,99291.45
2018-03-17T18:14:38.079Z,99291.27
2018-03-17T18:17:09.237Z,99290.50
2018-03-17T18:19:39.273Z,99282.28
2018-03-17T18:22:09.631Z,99287.49
2018-03-17T18:24:39.174Z,99287.70
2018-03-17T18:27:08.874Z,99288.69
2018-03-17T18:29:38.176Z,99285.05
2018-03-17T18:32:07.626Z,99279.80
2018-03-17T18:34:36.819Z,99277.53
2018-03-17T18:37:06.237Z,99277.04
2018-03-17T18:39:35.909Z,99275.22
2018-03-17T18:42:05.212Z,99271.91
2018-03-17T18:44:34.514Z,99273.09
2018-03-17T18:47:03.886Z,99271.91
2018-03-17T18:49:33.283Z,99270.75
2018-03-17T18:52:02.589Z,99269.17
2018-03-17T18:54:32.142Z,99277.08
2018-03-17T18:57:01.696Z,99276.80
2018-03-17T18:59:31.956Z,99277.70
2018-03-17T19:02:01.451Z,99274.38
2018-03-17T19:04:30.846Z,99279.91
2018-03-17T19:06:59.975Z,99279.84
2018-03-17T19:09:28.999Z,99279.20
2018-03-17T19:11:58.377Z,99282.88
2018-03-17T19:14:27.617Z,99287.28
2018-03-17T19:16:57.092Z,99287.73
2018-03-17T19:19:26.492Z,99291.79
2018-03-17T19:21:55.757Z,99288.05
2018-03-17T19:24:25.364Z,99288.61
2018-03-17T19:26:54.750Z,99288.47
2018-03-17T19:29:23.765Z,99280.92
2018-03-17T19:31:53.070Z,99286.06
2018-03-17T19:34:22.238Z,99292.59
2018-03-17T19:36:51.612Z,99287.28
2018-03-17T19:39:20.907Z,99280.78
2018-03-17T19:41:50.061Z,99282.35
2018-03-17T19:44:19.566Z,99276.55
2018-03-17T19:46:48.577Z,99282.11
2018-03-17T19:49:17.841Z,99275.67
2018-03-17T19:51:47.242Z,99281.58
2018-03-17T19:54:16.541Z,99281.72
2018-03-17T19:56:45.966Z,99283.02
2018-03-17T19:59:15.120Z,99281.83
2018-03-17T20:01:44.421Z,99278.92
2018-03-17T20:04:13.679Z,99270.18
2018-03-17T20:06:43.126Z,99278.15
2018-03-17T20:09:12.670Z,99279.55
2018-03-17T20:11:42.169Z,99283.73
2018-03-17T20:14:11.487Z,99276.27
2018-03-17T20:16:40.933Z,99277.66
2018-03-17T20:19:10.207Z,99277.03
2018-03-17T20:21:39.320Z,99262.63
2018-03-17T20:24:08.365Z,99260.22
2018-03-17T20:26:37.902Z,99263.16
2018-03-17T20:29:07.528Z,99261.34
2018-03-17T20:31:36.738Z,99263.86
2018-03-17T20:34:05.676Z,99265.19
2018-03-17T20:36:34.854Z,99265.39
2018-03-17T20:39:04.621Z,99262.77
2018-03-17T20:41:34.063Z,99259.00
2018-03-17T20:44:03.472Z,99258.81
2018-03-17T20:46:32.785Z,99252.45
2018-03-17T20:49:01.999Z,99260.14
2018-03-17T20:51:31.290Z,99265.94
2018-03-17T20:54:00.725Z,99260.52
2018-03-17T20:56:29.805Z,99259.69
2018-03-17T20:58:58.890Z,99266.81
2018-03-17T21:01:28.578Z,99270.79
2018-03-17T21:03:57.779Z,99263.80
2018-03-17T21:06:27.271Z,99271.70
2018-03-17T21:08:56.619Z,99274.70
2018-03-17T21:11:26.150Z,99283.09
2018-03-17T21:13:55.326Z,99282.65
2018-03-17T21:16:24.229Z,99284.67
2018-03-17T21:18:53.792Z,99285.52
2018-03-17T21:21:23.142Z,99281.18
2018-03-17T21:23:52.488Z,99289.01
2018-03-17T21:26:21.692Z,99285.65
2018-03-17T21:28:51.109Z,99293.34
2018-03-17T21:31:20.217Z,99278.03
2018-03-17T21:33:49.050Z,99285.68
2018-03-17T21:36:18.407Z,99286.02
2018-03-17T21:38:47.810Z,99287.17
2018-03-17T21:41:16.990Z,99295.76
2018-03-17T21:43:46.136Z,99298.06
2018-03-17T21:46:15.732Z,99301.48
2018-03-17T21:48:45.125Z,99297.85
2018-03-17T21:51:14.428Z,99292.29
2018-03-17T21:53:43.916Z,99290.67
2018-03-17T21:56:12.787Z,99289.00
2018-03-17T21:58:41.908Z,99295.56
2018-03-17T22:01:11.513Z,99284.22
2018-03-17T22:03:40.788Z,99286.74
2018-03-17T22:06:10.461Z,99283.95
2018-03-17T22:08:39.568Z,99288.70
2018-03-17T22:11:08.809Z,99290.59
2018-03-17T22:13:38.051Z,99290.59
2018-03-17T22:16:08.343Z,99286.19
2018-03-17T22:18:37.418Z,99285.83
2018-03-17T22:21:06.401Z,99279.02
2018-03-17T22:23:35.537Z,99277.54
2018-03-17T22:26:04.706Z,99279.49
2018-03-17T22:28:33.864Z,99281.06
2018-03-17T22:31:03.235Z,99280.05
2018-03-17T22:33:32.610Z,99277.14
2018-03-17T22:36:02.056Z,99273.02
2018-03-17T22:38:31.576Z,99280.20
2018-03-17T22:41:01.165Z,99279.95
2018-03-17T22:43:30.600Z,99277.37
2018-03-17T22:45:59.814Z,99275.76
2018-03-17T22:48:28.600Z,99278.28
2018-03-17T22:50:58.164Z,99276.88
2018-03-17T22:53:27.373Z,99282.51
2018-03-17T22:55:56.809Z,99276.64
2018-03-17T22:58:25.879Z,99280.62
2018-03-17T23:00:55.120Z,99285.37
2018-03-17T23:03:24.499Z,99278.26
2018-03-17T23:05:53.884Z,99279.58
2018-03-17T23:08:23.349Z,99280.77
2018-03-17T23:10:52.650Z,99280.02
2018-03-17T23:13:22.004Z,99283.72
2018-03-17T23:15:51.153Z,99278.69
2018-03-17T23:18:20.410Z,99274.98
2018-03-17T23:20:49.633Z,99280.77
2018-03-17T23:23:19.144Z,99278.25
2018-03-17T23:25:48.183Z,99281.11
2018-03-17T23:28:17.502Z,99279.05
2018-03-17T23:30:46.756Z,99292.21
2018-03-17T23:33:15.834Z,99294.39
2018-03-17T23:35:45.139Z,99298.80
2018-03-17T23:38:15.096Z,99297.12
2018-03-17T23:40:44.739Z,99296.56
2018-03-17T23:43:14.123Z,99300.47
2018-03-17T23:45:43.548Z,99305.65
2018-03-17T23:48:13.100Z,99304.81
2018-03-17T23:50:42.278Z,99303.73
2018-03-17T23:53:11.717Z,99299.43
2018-03-17T23:55:40.990Z,99309.70
2018-03-17T23:58:10.578Z,99312.91
